Time;durP1;ratioP1;P1;durP2;ratioP2;P2;SDS_P1;SDS_P2;PMS_P1;PMS_P2;Temp;Humidity;BMP_temperature;BMP_pressure;BME280_temperature;BME280_humidity;BME280_pressure;Samples;Min_cycle;Max_cycle;Signal;HPM_P1;HPM_P2
2022/11/23 00:02:03;;;;;;;9.53;5.93;;;;;;;-141.28;100.00;51105.59;5111960;28;20506;-78
2022/11/23 00:04:30;;;;;;;9.93;6.83;;;;;;;-141.28;100.00;51052.59;5112577;28;20445;-75
2022/11/23 00:06:57;;;;;;;11.40;7.20;;;;;;;-141.28;100.00;51034.94;5111717;28;20445;-74
2022/11/23 00:09:24;;;;;;;15.80;7.30;;;;;;;-141.28;100.00;51068.28;5112168;28;20461;-74
2022/11/23 00:11:51;;;;;;;14.33;8.07;;;;;;;-141.28;100.00;50659.97;5111703;28;20441;-74
2022/11/23 00:14:19;;;;;;;11.80;7.40;;;;;;;-141.28;100.00;51170.38;5113088;28;20465;-75
2022/11/23 00:16:46;;;;;;;12.73;7.10;;;;;;;-141.28;100.00;51205.72;5116000;28;20460;-74
2022/11/23 00:19:13;;;;;;;13.83;8.43;;;;;;;-141.28;100.00;51174.31;5112302;28;20862;-78
2022/11/23 00:21:40;;;;;;;12.97;8.50;;;;;;;-141.28;100.00;51209.66;5111475;28;20468;-76
2022/11/23 00:24:11;;;;;;;14.57;9.50;;;;;;;-141.28;100.00;51209.66;5111913;28;20444;-77
2022/11/23 00:26:39;;;;;;;14.03;9.13;;;;;;;-141.28;100.00;51158.59;5111819;28;20828;-74
2022/11/23 00:29:08;;;;;;;15.50;9.10;;;;;;;-141.28;100.00;51213.56;5104039;28;20453;-78
2022/11/23 00:31:36;;;;;;;14.93;9.60;;;;;;;-141.28;100.00;51219.47;5107880;28;20445;-77
2022/11/23 00:34:03;;;;;;;16.17;9.77;;;;;;;-141.28;100.00;51231.25;5112713;28;20580;-77
2022/11/23 00:36:30;;;;;;;14.40;9.13;;;;;;;-141.28;100.00;51166.47;5117346;28;20495;-77
2022/11/23 00:38:57;;;;;;;15.27;8.80;;;;;;;-141.28;100.00;50779.72;5128648;28;20825;-73
2022/11/23 00:41:25;;;;;;;14.00;9.23;;;;;;;-141.28;100.00;51190.03;5122469;28;20452;-73
2022/11/23 00:43:52;;;;;;;14.97;9.63;;;;;;;-141.28;100.00;51209.66;5129132;28;20445;-74
2022/11/23 00:46:21;;;;;;;14.23;8.93;;;;;;;-141.28;100.00;51142.91;5115296;28;20445;-76
2022/11/23 00:48:52;;;;;;;18.83;9.20;;;;;;;-141.28;100.00;50985.84;5125356;28;20437;-78
2022/11/23 00:51:21;;;;;;;15.50;9.57;;;;;;;-141.28;100.00;51107.56;5112632;28;20502;-75
2022/11/23 00:53:49;;;;;;;19.63;9.57;;;;;;;-141.28;100.00;51001.56;5111837;28;21010;-75
2022/11/23 00:56:17;;;;;;;15.73;9.63;;;;;;;-141.28;100.00;51076.16;5111556;28;20946;-77
2022/11/23 00:58:48;;;;;;;15.90;9.93;;;;;;;-141.28;100.00;51052.59;5111762;28;20455;-76
2022/11/23 01:01:16;;;;;;;16.33;9.20;;;;;;;-141.28;100.00;50738.50;5111611;28;20456;-76
2022/11/23 01:03:44;;;;;;;14.00;9.83;;;;;;;-141.28;100.00;51050.63;5110649;28;20505;-77
2022/11/23 01:06:14;;;;;;;15.90;10.07;;;;;;;-141.28;100.00;51052.59;5110851;28;20522;-77
2022/11/23 01:08:42;;;;;;;16.60;10.40;;;;;;;-141.28;100.00;51138.97;5111163;28;20506;-76
2022/11/23 01:11:11;;;;;;;14.77;9.77;;;;;;;-141.28;100.00;51127.19;5111438;28;20444;-78
2022/11/23 01:13:39;;;;;;;16.10;10.97;;;;;;;-141.28;100.00;51076.16;5111293;28;20484;-79
2022/11/23 01:16:08;;;;;;;13.13;9.47;;;;;;;-141.28;100.00;51119.34;5111103;28;20545;-77
2022/11/23 01:18:35;;;;;;;19.43;9.43;;;;;;;-141.28;100.00;51174.31;5111186;28;20476;-78
2022/11/23 01:21:02;;;;;;;15.90;9.73;;;;;;;-141.28;100.00;51190.03;5109606;28;20502;-76
2022/11/23 01:23:30;;;;;;;16.60;9.43;;;;;;;-141.28;100.00;51146.81;5111086;28;20444;-77
2022/11/23 01:25:59;;;;;;;16.60;10.00;;;;;;;-141.28;100.00;51152.72;5110926;28;20433;-75
2022/11/23 01:28:26;;;;;;;19.63;10.10;;;;;;;-141.28;100.00;51107.56;5111130;28;20805;-76
2022/11/23 01:30:53;;;;;;;19.80;10.93;;;;;;;-141.28;100.00;51080.06;5110537;28;20521;-76
2022/11/23 01:33:20;;;;;;;17.30;10.07;;;;;;;-141.28;100.00;51166.47;5101005;28;21014;-75
2022/11/23 01:35:48;;;;;;;20.47;11.10;;;;;;;-141.28;100.00;51146.81;5107934;28;20529;-76
2022/11/23 01:38:15;;;;;;;19.40;11.07;;;;;;;-141.28;100.00;51166.47;5109578;28;21020;-75
2022/11/23 01:40:43;;;;;;;19.63;11.10;;;;;;;-141.28;100.00;51150.75;5111004;28;20444;-75
2022/11/23 01:43:16;;;;;;;17.60;11.40;;;;;;;-141.28;100.00;51152.72;5109821;28;20983;-77
2022/11/23 01:45:45;;;;;;;16.80;11.63;;;;;;;-141.28;100.00;51005.47;5110927;28;20540;-77
2022/11/23 01:48:16;;;;;;;16.27;10.97;;;;;;;-141.28;100.00;51146.81;5110403;28;20514;-75
2022/11/23 01:50:46;;;;;;;18.33;11.00;;;;;;;-141.28;100.00;51166.47;5110439;28;20459;-78
2022/11/23 01:53:14;;;;;;;18.17;10.53;;;;;;;-141.28;100.00;51209.66;5110556;28;20484;-75
2022/11/23 01:55:42;;;;;;;18.60;11.70;;;;;;;-141.28;100.00;51138.97;5098095;28;20858;-76
2022/11/23 01:58:14;;;;;;;19.10;10.43;;;;;;;-141.28;100.00;51127.19;5110460;28;20445;-76
2022/11/23 02:00:41;;;;;;;15.33;10.67;;;;;;;-141.28;100.00;51048.66;5111102;28;20441;-74
2022/11/23 02:03:09;;;;;;;16.60;10.57;;;;;;;-141.28;100.00;51084.00;5110447;28;20451;-74
2022/11/23 02:05:42;;;;;;;16.37;10.80;;;;;;;-141.28;100.00;50966.22;5111617;28;20741;-76
2022/11/23 02:08:11;;;;;;;15.97;11.40;;;;;;;-141.28;100.00;51068.28;5109656;28;20511;-75
2022/11/23 02:10:39;;;;;;;16.63;10.17;;;;;;;-141.28;100.00;51099.72;5111178;28;20468;-75
2022/11/23 02:13:08;;;;;;;16.97;11.13;;;;;;;-141.28;100.00;51111.50;5113766;28;20480;-76
2022/11/23 02:15:37;;;;;;;18.70;11.43;;;;;;;-141.28;100.00;51080.06;5115573;28;20510;-76
2022/11/23 02:18:07;;;;;;;14.43;10.83;;;;;;;-141.28;100.00;51060.44;5114745;28;20439;-78
2022/11/23 02:20:34;;;;;;;16.73;10.53;;;;;;;-141.28;100.00;50930.88;5114591;28;20437;-78
2022/11/23 02:23:16;;;;;;;17.73;11.27;;;;;;;-141.28;100.00;50966.22;5114558;28;20468;-79
2022/11/23 02:25:56;;;;;;;19.93;11.43;;;;;;;-141.28;100.00;50742.41;5114878;28;20445;-75
2022/11/23 02:28:28;;;;;;;19.57;11.63;;;;;;;-141.28;100.00;50871.97;5114788;28;20437;-76
2022/11/23 02:30:56;;;;;;;17.07;11.67;;;;;;;-141.28;100.00;50856.28;5115022;28;20605;-74
2022/11/23 02:33:24;;;;;;;24.90;14.23;;;;;;;-141.28;100.00;50752.22;5114414;28;20560;-76
2022/11/23 02:35:53;;;;;;;19.30;12.10;;;;;;;-141.28;100.00;50844.50;5114299;28;20444;-75
2022/11/23 02:38:21;;;;;;;19.40;11.90;;;;;;;-141.28;100.00;50864.13;5114016;28;20973;-78
2022/11/23 02:40:50;;;;;;;16.23;10.60;;;;;;;-141.28;100.00;50836.66;5114664;28;20509;-75
2022/11/23 02:43:18;;;;;;;18.23;11.47;;;;;;;-141.28;100.00;50773.81;5114183;28;20437;-78
2022/11/23 02:45:50;;;;;;;17.13;10.53;;;;;;;-141.28;100.00;50875.91;5113986;28;20436;-75
2022/11/23 02:48:17;;;;;;;18.07;11.53;;;;;;;-141.28;100.00;50915.16;5114129;28;20505;-75
2022/11/23 02:50:45;;;;;;;19.33;12.90;;;;;;;-141.28;100.00;50954.44;5113970;28;20947;-75
2022/11/23 02:53:13;;;;;;;22.60;13.60;;;;;;;-141.28;100.00;50824.88;5113747;28;20595;-78
2022/11/23 02:55:40;;;;;;;36.37;18.70;;;;;;;-141.28;100.00;50997.63;5113840;28;20486;-75
2022/11/23 02:58:08;;;;;;;79.83;39.40;;;;;;;-141.28;100.00;50901.44;5114019;28;20441;-75
2022/11/23 03:00:35;;;;;;;46.70;24.83;;;;;;;-141.28;100.00;51034.94;5113816;28;20470;-75
2022/11/23 03:03:03;;;;;;;30.70;17.33;;;;;;;-141.28;100.00;51062.41;5113892;28;20536;-76
2022/11/23 03:05:31;;;;;;;33.90;18.17;;;;;;;-141.28;100.00;51003.50;5113869;28;20433;-75
2022/11/23 03:07:58;;;;;;;29.27;16.87;;;;;;;-141.28;100.00;51162.53;5113815;28;20526;-74
2022/11/23 03:10:25;;;;;;;49.60;27.63;;;;;;;-141.28;100.00;51133.09;5113469;28;20537;-75
2022/11/23 03:12:54;;;;;;;39.30;23.87;;;;;;;-141.28;100.00;51176.28;5113480;28;20855;-78
2022/11/23 03:15:22;;;;;;;42.40;23.90;;;;;;;-141.28;100.00;51186.09;5113365;28;20448;-74
2022/11/23 03:17:49;;;;;;;36.77;21.33;;;;;;;-141.28;100.00;51178.25;5112824;28;20468;-77
2022/11/23 03:20:16;;;;;;;35.70;20.53;;;;;;;-141.28;100.00;51162.53;5112388;28;20517;-76
2022/11/23 03:22:44;;;;;;;37.03;21.37;;;;;;;-141.28;100.00;50981.91;5113108;28;20464;-75
2022/11/23 03:25:11;;;;;;;36.23;21.00;;;;;;;-141.28;100.00;51154.69;5114500;28;20523;-75
2022/11/23 03:27:39;;;;;;;33.10;18.47;;;;;;;-141.28;100.00;51197.88;5116797;28;20449;-74
2022/11/23 03:30:07;;;;;;;33.63;18.57;;;;;;;-141.28;100.00;51197.88;5110294;28;20497;-75
2022/11/23 03:32:36;;;;;;;27.60;16.87;;;;;;;-141.28;100.00;51209.66;5102584;28;20478;-77
2022/11/23 03:35:03;;;;;;;33.07;17.17;;;;;;;-141.28;100.00;50966.22;5112899;28;20492;-75
2022/11/23 03:37:30;;;;;;;34.63;16.23;;;;;;;-141.28;100.00;51150.75;5112774;28;20766;-75
2022/11/23 03:39:57;;;;;;;24.50;13.87;;;;;;;-141.28;100.00;51193.94;5112260;28;20453;-75
2022/11/23 03:42:24;;;;;;;22.40;12.73;;;;;;;-141.28;100.00;51186.09;5111415;28;20829;-74
2022/11/23 03:44:52;;;;;;;23.27;13.27;;;;;;;-141.28;100.00;51158.59;5112536;28;20505;-77
2022/11/23 03:47:24;;;;;;;20.77;12.90;;;;;;;-141.28;100.00;51129.16;5112524;28;20556;-78
2022/11/23 03:49:56;;;;;;;21.30;12.07;;;;;;;-141.28;100.00;50946.59;5113262;28;20800;-76
2022/11/23 03:52:31;;;;;;;20.87;13.33;;;;;;;-141.28;100.00;50942.66;5112854;28;20464;-77
2022/11/23 03:54:58;;;;;;;20.80;12.00;;;;;;;-141.28;100.00;51044.75;5112950;28;20479;-75
2022/11/23 03:57:26;;;;;;;18.40;12.57;;;;;;;-141.28;100.00;51038.84;5112187;28;20528;-76
2022/11/23 03:59:53;;;;;;;18.70;12.03;;;;;;;-141.28;100.00;51048.66;5112392;28;20841;-76
2022/11/23 04:02:20;;;;;;;21.80;12.23;;;;;;;-141.28;100.00;51048.66;5099029;28;20445;-75
2022/11/23 04:04:48;;;;;;;25.43;12.70;;;;;;;-141.28;100.00;51062.41;5111767;28;20822;-74
2022/11/23 04:07:17;;;;;;;25.50;14.30;;;;;;;-141.28;100.00;50828.78;5098612;28;20456;-75
2022/11/23 04:09:44;;;;;;;19.20;11.60;;;;;;;-141.28;100.00;51044.75;5112098;28;20486;-75
2022/11/23 04:12:11;;;;;;;21.53;12.77;;;;;;;-141.28;100.00;50966.22;5112001;28;20449;-74
2022/11/23 04:14:37;;;;;;;20.07;12.33;;;;;;;-141.28;100.00;51029.03;5111709;28;20525;-76
2022/11/23 04:17:04;;;;;;;19.13;12.70;;;;;;;-141.28;100.00;50997.63;5112161;28;20545;-76
2022/11/23 04:19:31;;;;;;;23.40;13.23;;;;;;;-141.28;100.00;51029.03;5107811;28;20449;-75
2022/11/23 04:21:58;;;;;;;19.47;12.73;;;;;;;-141.28;100.00;50974.06;5102777;28;20978;-75
2022/11/23 04:24:26;;;;;;;21.43;12.33;;;;;;;-141.28;100.00;51015.28;5111880;28;20474;-74
2022/11/23 04:26:53;;;;;;;22.13;13.00;;;;;;;-141.28;100.00;51011.38;5112077;28;20437;-75
2022/11/23 04:29:20;;;;;;;23.33;14.20;;;;;;;-141.28;100.00;51034.94;5111632;28;20942;-74
2022/11/23 04:31:47;;;;;;;21.63;13.70;;;;;;;-141.28;100.00;51017.25;5111835;28;20445;-77
2022/11/23 04:34:14;;;;;;;24.50;15.40;;;;;;;-141.28;100.00;50989.78;5114160;28;20480;-75
2022/11/23 04:36:41;;;;;;;26.67;14.97;;;;;;;-141.28;100.00;50978.00;5116137;28;20441;-76
2022/11/23 04:39:09;;;;;;;23.77;14.30;;;;;;;-141.28;100.00;50962.28;5115112;28;20482;-75
2022/11/23 04:41:37;;;;;;;21.73;13.80;;;;;;;-141.28;100.00;50809.16;5114286;28;20470;-75
2022/11/23 04:44:05;;;;;;;20.50;13.63;;;;;;;-141.28;100.00;50942.66;5114851;28;20436;-73
2022/11/23 04:46:34;;;;;;;24.50;14.40;;;;;;;-141.28;100.00;50883.75;5117023;28;20448;-74
2022/11/23 04:49:01;;;;;;;28.37;17.27;;;;;;;-141.28;100.00;50875.91;5114904;28;20535;-75
2022/11/23 04:51:28;;;;;;;24.90;16.50;;;;;;;-141.28;100.00;50820.94;5111844;28;20457;-76
2022/11/23 04:53:54;;;;;;;25.10;15.27;;;;;;;-141.28;100.00;50785.59;5111038;28;20480;-74
2022/11/23 04:56:22;;;;;;;25.87;15.97;;;;;;;-141.28;100.00;50750.28;5112247;28;20441;-78
2022/11/23 04:58:51;;;;;;;28.37;16.20;;;;;;;-141.28;100.00;50726.72;5111164;28;20783;-75
2022/11/23 05:01:18;;;;;;;25.83;15.40;;;;;;;-141.28;100.00;50675.69;5111566;28;20444;-75
2022/11/23 05:03:44;;;;;;;23.67;14.43;;;;;;;-141.28;100.00;50675.69;5111969;28;20481;-75
2022/11/23 05:06:11;;;;;;;25.90;15.07;;;;;;;-141.28;100.00;50640.34;5111436;28;20505;-74
2022/11/23 05:08:39;;;;;;;24.13;15.10;;;;;;;-141.28;100.00;50610.91;5111463;28;20452;-77
2022/11/23 05:11:06;;;;;;;23.37;15.33;;;;;;;-141.28;100.00;50603.06;5112948;28;20602;-75
2022/11/23 05:13:34;;;;;;;28.53;16.57;;;;;;;-141.28;100.00;50528.47;5113975;28;20456;-72
2022/11/23 05:16:02;;;;;;;24.13;15.00;;;;;;;-141.28;100.00;50585.38;5118386;28;20510;-75
2022/11/23 05:18:29;;;;;;;23.67;14.73;;;;;;;-141.28;100.00;50536.31;5118090;28;20445;-75
2022/11/23 05:20:56;;;;;;;22.17;15.60;;;;;;;-141.28;100.00;50546.13;5117010;28;20445;-72
2022/11/23 05:23:23;;;;;;;25.50;16.50;;;;;;;-141.28;100.00;50542.19;5115163;28;20476;-77
2022/11/23 05:25:51;;;;;;;20.40;15.47;;;;;;;-141.28;100.00;50495.09;5111750;28;20445;-74
2022/11/23 05:28:20;;;;;;;18.97;14.77;;;;;;;-141.28;100.00;50420.50;5111504;28;20453;-73
2022/11/23 05:30:49;;;;;;;19.73;13.73;;;;;;;-141.28;100.00;50499.00;5098757;28;20453;-75
2022/11/23 05:33:18;;;;;;;35.20;22.40;;;;;;;-141.28;100.00;50436.19;5110940;28;20441;-78
2022/11/23 05:35:44;;;;;;;33.97;21.23;;;;;;;-141.28;100.00;50422.47;5110612;28;20518;-75
2022/11/23 05:38:11;;;;;;;32.53;21.10;;;;;;;-141.28;100.00;50436.19;5098306;28;20494;-78
2022/11/23 05:40:38;;;;;;;27.97;18.13;;;;;;;-141.28;100.00;50432.28;5111147;28;20505;-74
2022/11/23 05:43:05;;;;;;;29.73;19.43;;;;;;;-141.28;100.00;50444.06;5109553;28;20456;-75
2022/11/23 05:45:32;;;;;;;27.87;18.50;;;;;;;-141.28;100.00;50446.03;5101447;28;20446;-74
2022/11/23 05:48:00;;;;;;;19.33;14.20;;;;;;;-141.28;100.00;50446.03;5106655;28;20475;-77
2022/11/23 05:50:28;;;;;;;23.93;14.67;;;;;;;-141.28;100.00;50404.81;5112116;28;20818;-74
2022/11/23 05:52:56;;;;;;;26.20;14.27;;;;;;;-141.28;100.00;50430.31;5114907;28;20505;-75
2022/11/23 05:55:24;;;;;;;18.43;13.00;;;;;;;-141.28;100.00;50434.25;5114751;28;20568;-75
2022/11/23 05:57:54;;;;;;;24.47;14.60;;;;;;;-141.28;100.00;50363.56;5114766;28;20602;-79
2022/11/23 06:00:21;;;;;;;22.40;13.80;;;;;;;-141.28;100.00;50451.91;5114268;28;20464;-74
2022/11/23 06:02:49;;;;;;;24.50;15.60;;;;;;;-141.28;100.00;50438.16;5114010;28;20441;-75
2022/11/23 06:05:16;;;;;;;25.80;14.00;;;;;;;-141.28;100.00;50420.50;5114569;28;20470;-74
2022/11/23 06:07:44;;;;;;;27.60;16.73;;;;;;;-141.28;100.00;50365.53;5114286;28;20440;-77
2022/11/23 06:10:11;;;;;;;24.80;15.70;;;;;;;-141.28;100.00;50324.31;5114230;28;20449;-75
2022/11/23 06:12:38;;;;;;;24.73;14.67;;;;;;;-141.28;100.00;50451.91;5114384;28;20866;-75
2022/11/23 06:15:07;;;;;;;25.97;15.30;;;;;;;-141.28;100.00;50561.81;5114277;28;20541;-76
2022/11/23 06:17:33;;;;;;;22.90;14.53;;;;;;;-141.28;100.00;50787.56;5114215;28;20838;-78
2022/11/23 06:20:00;;;;;;;25.07;14.27;;;;;;;-141.28;100.00;51158.59;5113942;28;20440;-75
2022/11/23 06:22:28;;;;;;;27.60;15.77;;;;;;;-141.28;100.00;50667.81;5113613;28;20482;-75
2022/11/23 06:24:56;;;;;;;23.93;14.00;;;;;;;-141.28;100.00;50455.84;5114138;28;20505;-74
2022/11/23 06:27:23;;;;;;;24.63;14.30;;;;;;;-141.28;100.00;50357.69;5113706;28;20437;-74
2022/11/23 06:29:51;;;;;;;20.63;13.87;;;;;;;-141.28;100.00;50345.91;5114486;28;20509;-74
2022/11/23 06:32:18;;;;;;;18.77;13.60;;;;;;;-141.28;100.00;50357.69;5113395;28;20445;-76
2022/11/23 06:34:45;;;;;;;26.30;14.17;;;;;;;-141.28;100.00;50353.75;5113662;28;20537;-74
2022/11/23 06:37:12;;;;;;;19.83;13.57;;;;;;;-141.28;100.00;50393.03;5100177;28;20446;-75
2022/11/23 06:39:39;;;;;;;26.23;15.97;;;;;;;-141.28;100.00;50412.66;5113863;28;20453;-78
2022/11/23 06:42:07;;;;;;;26.13;16.83;;;;;;;-141.28;100.00;50412.66;5113202;28;20452;-74
2022/11/23 06:44:34;;;;;;;28.10;16.97;;;;;;;-141.28;100.00;50428.34;5114291;28;20448;-77
2022/11/23 06:47:01;;;;;;;32.70;16.90;;;;;;;-141.28;100.00;50628.56;5118783;28;20449;-76
2022/11/23 06:49:28;;;;;;;26.23;15.30;;;;;;;-141.28;100.00;50864.13;5115821;28;20441;-75
2022/11/23 06:51:55;;;;;;;22.37;15.37;;;;;;;-141.28;100.00;50485.28;5114790;28;20441;-75
2022/11/23 06:54:22;;;;;;;21.97;14.63;;;;;;;-141.28;100.00;50581.47;5114390;28;20538;-76
2022/11/23 06:56:48;;;;;;;25.57;13.50;;;;;;;-141.28;100.00;50449.94;5113884;28;20473;-77
2022/11/23 06:59:17;;;;;;;20.90;14.17;;;;;;;-141.28;100.00;50371.44;5114315;28;20494;-79
2022/11/23 07:01:44;;;;;;;22.03;14.47;;;;;;;-141.28;100.00;50363.56;5113349;28;20441;-76
2022/11/23 07:04:12;;;;;;;23.43;15.33;;;;;;;-141.28;100.00;50455.84;5113474;28;20468;-75
2022/11/23 07:06:41;;;;;;;23.43;15.80;;;;;;;-141.28;100.00;50709.06;5113280;28;20441;-75
2022/11/23 07:09:08;;;;;;;25.37;19.23;;;;;;;-141.28;100.00;50479.38;5112272;28;20978;-77
2022/11/23 07:11:35;;;;;;;28.83;19.30;;;;;;;-141.28;100.00;50699.22;5101038;28;20449;-77
2022/11/23 07:14:02;;;;;;;25.67;18.40;;;;;;;-141.28;100.00;50518.66;5113448;28;20827;-74
2022/11/23 07:16:30;;;;;;;18.33;14.60;;;;;;;-141.28;100.00;50487.25;5113719;28;20578;-75
2022/11/23 07:18:58;;;;;;;25.17;16.97;;;;;;;-141.28;100.00;50618.75;5113269;28;20891;-74
2022/11/23 07:21:25;;;;;;;18.50;14.03;;;;;;;-141.28;100.00;50820.94;5113072;28;20863;-75
2022/11/23 07:23:52;;;;;;;13.87;11.60;;;;;;;-141.28;100.00;50659.97;5112940;28;20534;-74
2022/11/23 07:26:19;;;;;;;15.80;11.53;;;;;;;-141.28;100.00;50632.50;5113127;28;20936;-78
2022/11/23 07:28:46;;;;;;;16.47;12.03;;;;;;;-141.28;100.00;50385.16;5112944;28;20536;-77
2022/11/23 07:31:14;;;;;;;17.07;11.83;;;;;;;-141.28;100.00;50367.50;5112971;28;20476;-75
2022/11/23 07:33:45;;;;;;;23.33;13.43;;;;;;;-141.28;100.00;50267.41;5112485;28;20460;-75
2022/11/23 07:36:13;;;;;;;14.03;11.63;;;;;;;-141.28;100.00;50224.22;5112655;28;20915;-75
2022/11/23 07:38:40;;;;;;;21.27;11.83;;;;;;;-141.28;100.00;50145.72;5112385;28;20441;-75
2022/11/23 07:41:07;;;;;;;19.10;14.17;;;;;;;-141.28;100.00;50078.97;5112804;28;20453;-77
2022/11/23 07:43:35;;;;;;;22.60;15.43;;;;;;;-141.28;100.00;50224.22;5111702;28;20448;-79
2022/11/23 07:46:02;;;;;;;21.23;14.70;;;;;;;-141.28;100.00;50232.06;5112423;28;20479;-76
2022/11/23 07:48:30;;;;;;;18.30;14.30;;;;;;;-141.28;100.00;49973.00;5112344;28;20532;-76
2022/11/23 07:50:58;;;;;;;21.73;14.70;;;;;;;-141.28;100.00;50027.97;5112338;28;20910;-74
2022/11/23 07:53:26;;;;;;;19.63;14.23;;;;;;;-141.28;100.00;49953.38;5112514;28;20494;-75
2022/11/23 07:55:56;;;;;;;22.63;13.60;;;;;;;-141.28;100.00;49892.53;5114812;28;20488;-76
2022/11/23 07:58:23;;;;;;;21.43;14.30;;;;;;;-141.28;100.00;50082.91;5114574;28;20283;-78
2022/11/23 08:00:50;;;;;;;23.47;15.07;;;;;;;-141.28;100.00;50059.34;5101538;28;20448;-74
2022/11/23 08:03:17;;;;;;;26.73;15.73;;;;;;;-141.28;100.00;50075.06;5114409;28;20603;-75
2022/11/23 08:05:44;;;;;;;19.23;14.37;;;;;;;-141.28;100.00;49904.31;5112447;28;20237;-75
2022/11/23 08:08:12;;;;;;;20.50;15.07;;;;;;;-141.28;100.00;50043.66;5112442;28;20449;-76
2022/11/23 08:10:40;;;;;;;20.80;15.23;;;;;;;-141.28;100.00;50000.47;5112153;28;20194;-75
2022/11/23 08:13:08;;;;;;;20.60;14.60;;;;;;;-141.28;100.00;49959.25;5111648;28;20501;-78
2022/11/23 08:15:36;;;;;;;24.43;15.90;;;;;;;-141.28;100.00;49929.81;5112207;28;20541;-75
2022/11/23 08:18:04;;;;;;;22.90;14.90;;;;;;;-141.28;100.00;49949.44;5112025;28;20283;-76
2022/11/23 08:20:33;;;;;;;19.80;14.70;;;;;;;-141.28;100.00;49967.13;5112178;28;20448;-75
2022/11/23 08:23:00;;;;;;;20.60;15.53;;;;;;;-141.28;100.00;49867.03;5111994;28;20750;-76
2022/11/23 08:25:29;;;;;;;20.53;15.23;;;;;;;-141.28;100.00;49792.44;5111750;28;20463;-74
2022/11/23 08:27:56;;;;;;;21.53;16.33;;;;;;;-141.28;100.00;49537.34;5111766;28;20216;-75
2022/11/23 08:30:23;;;;;;;25.70;16.40;;;;;;;-141.28;100.00;49655.09;5111453;28;20206;-76
2022/11/23 08:32:50;;;;;;;27.57;18.80;;;;;;;-141.28;100.00;49710.03;5112600;28;20206;-75
2022/11/23 08:35:18;;;;;;;24.83;16.73;;;;;;;-141.28;100.00;49723.75;5111520;28;20299;-75
2022/11/23 08:37:44;;;;;;;25.77;17.03;;;;;;;-141.28;100.00;49733.56;5112160;28;20498;-77
2022/11/23 08:40:12;;;;;;;23.40;17.17;;;;;;;-141.28;100.00;49710.03;5112177;28;20824;-75
2022/11/23 08:42:42;;;;;;;23.67;17.20;;;;;;;-141.28;100.00;49733.56;5110931;28;20207;-77
2022/11/23 08:45:10;;;;;;;26.83;17.83;;;;;;;-141.28;100.00;49706.09;5111831;28;20754;-78
2022/11/23 08:47:37;;;;;;;23.50;17.73;;;;;;;-141.28;100.00;49672.75;5114166;28;20502;-79
2022/11/23 08:50:04;;;;;;;28.87;18.33;;;;;;;-141.28;100.00;49611.91;5113205;28;20198;-78
2022/11/23 08:52:31;;;;;;;27.27;18.53;;;;;;;-141.28;100.00;49553.03;5121361;28;20240;-74
2022/11/23 08:54:58;;;;;;;21.70;16.73;;;;;;;-141.28;100.00;49568.75;5118366;28;20266;-74
2022/11/23 08:57:25;;;;;;;20.73;15.40;;;;;;;-141.28;100.00;49551.06;5116341;28;20203;-75
2022/11/23 08:59:53;;;;;;;20.00;15.23;;;;;;;-141.28;100.00;49452.97;5113213;28;20205;-75
2022/11/23 09:02:21;;;;;;;19.37;14.40;;;;;;;-141.28;100.00;49502.03;5112089;28;20646;-74
2022/11/23 09:04:48;;;;;;;18.07;13.93;;;;;;;-141.28;100.00;49486.31;5099635;28;20269;-78
2022/11/23 09:07:16;;;;;;;16.93;13.17;;;;;;;-141.28;100.00;49445.13;5111618;28;20198;-76
2022/11/23 09:09:43;;;;;;;18.40;12.47;;;;;;;-141.28;100.00;49439.22;5111538;28;20202;-77
2022/11/23 09:12:10;;;;;;;18.07;12.80;;;;;;;-141.28;100.00;49411.75;5111146;28;20278;-74
2022/11/23 09:14:37;;;;;;;22.30;13.73;;;;;;;-141.28;100.00;49443.16;5111156;28;20235;-77
2022/11/23 09:17:05;;;;;;;20.50;15.00;;;;;;;-141.28;100.00;49513.78;5110967;28;20218;-77
2022/11/23 09:19:33;;;;;;;17.27;12.53;;;;;;;-141.28;100.00;49533.41;5111432;28;20206;-76
2022/11/23 09:22:00;;;;;;;18.03;11.77;;;;;;;-141.28;100.00;49556.97;5111301;28;20622;-74
2022/11/23 09:24:27;;;;;;;17.03;11.57;;;;;;;-141.28;100.00;49570.69;5111174;28;20201;-78
2022/11/23 09:26:54;;;;;;;17.50;12.13;;;;;;;-141.28;100.00;49568.75;5115249;28;20651;-77
2022/11/23 09:29:21;;;;;;;14.80;11.17;;;;;;;-141.28;100.00;49566.78;5115189;28;20290;-76
2022/11/23 09:31:48;;;;;;;20.97;14.37;;;;;;;-141.28;100.00;49521.63;5116509;28;20199;-75
2022/11/23 09:34:17;;;;;;;16.83;12.00;;;;;;;-141.28;100.00;49592.28;5116067;28;20590;-78
2022/11/23 09:36:46;;;;;;;14.43;9.73;;;;;;;-141.28;100.00;49576.59;5115210;28;20242;-78
2022/11/23 09:39:12;;;;;;;15.20;11.17;;;;;;;-141.28;100.00;49521.63;5114921;28;20555;-75
2022/11/23 09:41:55;;;;;;;16.80;10.70;;;;;;;-141.28;100.00;49490.25;5113928;28;20633;-74
2022/11/23 09:44:33;;;;;;;12.47;9.77;;;;;;;-141.28;100.00;49468.66;5113073;28;20203;-75
2022/11/23 09:47:15;;;;;;;17.23;10.90;;;;;;;-141.28;100.00;49439.22;5105375;28;20206;-78
2022/11/23 09:49:52;;;;;;;24.07;14.37;;;;;;;-141.28;100.00;49399.97;5114648;28;20668;-75
2022/11/23 09:52:24;;;;;;;13.67;8.53;;;;;;;-141.28;100.00;49331.31;5115006;28;20195;-75
2022/11/23 09:54:55;;;;;;;12.90;8.80;;;;;;;-141.28;100.00;49372.50;5114803;28;20252;-75
2022/11/23 09:57:27;;;;;;;12.60;8.23;;;;;;;-141.28;100.00;49288.13;5114446;28;20254;-77
2022/11/23 09:59:57;;;;;;;12.57;8.37;;;;;;;-141.28;100.00;49215.53;5115178;28;20191;-77
2022/11/23 10:02:28;;;;;;;10.27;7.60;;;;;;;-141.28;100.00;49237.13;5114530;28;20199;-78
2022/11/23 10:05:00;;;;;;;10.73;8.50;;;;;;;-141.28;100.00;49223.38;5116000;28;20278;-74
2022/11/23 10:07:45;;;;;;;12.20;8.73;;;;;;;-141.28;100.00;49148.81;5117100;28;20228;-74
2022/11/23 10:10:28;;;;;;;11.40;8.10;;;;;;;-141.28;100.00;49235.16;5114818;28;20256;-79
2022/11/23 10:13:05;;;;;;;13.80;9.00;;;;;;;-141.28;100.00;49454.94;5114999;28;20206;-78
2022/11/23 10:15:39;;;;;;;9.03;7.30;;;;;;;-141.28;100.00;49729.66;5114405;28;20234;-76
2022/11/23 10:18:24;;;;;;;10.63;6.80;;;;;;;-141.28;100.00;49951.41;5114869;28;20292;-75
2022/11/23 10:20:59;;;;;;;9.23;5.93;;;;;;;-141.28;100.00;50232.06;5103385;28;20677;-78
2022/11/23 10:23:48;;;;;;;10.00;5.67;;;;;;;-141.28;100.00;50593.22;5113938;28;20267;-75
2022/11/23 10:26:17;;;;;;;6.53;4.57;;;;;;;-141.28;100.00;50732.59;5114156;28;20669;-77
2022/11/23 10:28:45;;;;;;;5.60;4.27;;;;;;;-141.28;100.00;50424.44;5101257;28;20207;-74
2022/11/23 10:31:14;;;;;;;4.83;4.13;;;;;;;-141.28;100.00;50389.09;5114141;28;20206;-75
2022/11/23 10:33:50;;;;;;;5.00;4.03;;;;;;;-141.28;100.00;50406.75;5114861;28;20202;-73
2022/11/23 10:36:19;;;;;;;6.53;4.07;;;;;;;-141.28;100.00;50581.47;5113430;28;21250;-74
2022/11/23 10:38:49;;;;;;;5.00;3.53;;;;;;;-141.28;100.00;50534.34;5113968;28;20199;-77
2022/11/23 10:41:17;;;;;;;5.50;4.07;;;;;;;-141.28;100.00;50406.75;5112733;28;20263;-76
2022/11/23 10:43:50;;;;;;;6.30;3.90;;;;;;;-141.28;100.00;50277.22;5101214;28;20203;-76
2022/11/23 10:46:26;;;;;;;5.80;3.47;;;;;;;-141.28;100.00;50175.16;5114134;28;20687;-77
2022/11/23 10:48:55;;;;;;;4.40;3.50;;;;;;;-141.28;100.00;50016.19;5113496;28;20256;-78
2022/11/23 10:51:30;;;;;;;5.63;4.10;;;;;;;-141.28;100.00;49886.66;5113616;28;20673;-75
2022/11/23 10:54:00;;;;;;;8.53;4.23;;;;;;;-141.28;100.00;49804.22;5113355;28;20198;-74
2022/11/23 10:56:27;;;;;;;5.43;4.13;;;;;;;-141.28;100.00;49723.75;5113386;28;20241;-75
2022/11/23 10:58:54;;;;;;;5.10;3.53;;;;;;;-141.28;100.00;49655.09;5113172;28;20306;-76
2022/11/23 11:01:23;;;;;;;5.00;3.60;;;;;;;-141.28;100.00;49627.59;5113828;28;20259;-75
2022/11/23 11:03:51;;;;;;;18.23;5.73;;;;;;;-141.28;100.00;49600.13;5113460;28;20210;-77